createdAt,value
2023-03-30T00:10:20.472Z,18.60
2023-03-30T00:25:25.587Z,18.50
2023-03-30T00:40:31.342Z,18.40
2023-03-30T00:55:38.410Z,18.50
2023-03-30T01:10:44.002Z,18.40
2023-03-30T01:26:23.320Z,18.20
2023-03-30T01:41:35.710Z,18.10
2023-03-30T01:56:45.535Z,17.60
2023-03-30T02:11:53.646Z,17.70
2023-03-30T02:26:59.998Z,17.50
2023-03-30T02:42:29.581Z,17.40
2023-03-30T02:57:42.773Z,17.10
2023-03-30T03:13:10.965Z,16.90
2023-03-30T03:28:19.150Z,16.50
2023-03-30T03:43:27.521Z,16.60
2023-03-30T03:58:32.273Z,16.20
2023-03-30T04:13:37.091Z,16.30
2023-03-30T04:29:06.817Z,16.30
2023-03-30T04:44:13.896Z,16.50
2023-03-30T04:59:31.372Z,16.20
2023-03-30T05:14:54.287Z,16.20
2023-03-30T05:30:14.851Z,15.90
2023-03-30T05:45:38.138Z,16.00
2023-03-30T06:01:09.454Z,16.10
2023-03-30T06:16:17.619Z,16.00
2023-03-30T06:31:22.515Z,16.00
2023-03-30T06:46:34.850Z,16.20
2023-03-30T07:01:39.720Z,15.90
2023-03-30T07:17:07.879Z,16.20
2023-03-30T07:32:12.804Z,16.10
2023-03-30T07:47:17.456Z,16.20
2023-03-30T08:02:22.659Z,16.10
2023-03-30T08:17:30.971Z,16.30
2023-03-30T08:32:35.661Z,16.30
2023-03-30T08:47:43.551Z,16.40
2023-03-30T09:02:51.665Z,16.30
2023-03-30T09:18:01.783Z,16.70
2023-03-30T09:33:15.623Z,16.90
2023-03-30T09:48:20.103Z,16.80
2023-03-30T10:03:25.154Z,17.10
2023-03-30T10:18:36.531Z,16.70
2023-03-30T10:33:44.088Z,17.00
2023-03-30T10:49:04.703Z,17.50
2023-03-30T11:04:23.764Z,17.50
2023-03-30T11:19:35.008Z,17.90
2023-03-30T11:34:52.719Z,17.90
2023-03-30T11:50:08.467Z,17.80
2023-03-30T12:05:22.216Z,18.10
2023-03-30T12:20:38.912Z,18.10
2023-03-30T12:36:23.070Z,18.00
2023-03-30T12:51:46.704Z,18.60
2023-03-30T13:06:53.785Z,18.90
2023-03-30T13:22:04.822Z,18.40
2023-03-30T13:37:19.999Z,19.40
2023-03-30T13:52:32.540Z,19.80
2023-03-30T14:07:43.518Z,20.80
2023-03-30T14:22:50.375Z,22.40
2023-03-30T14:37:57.170Z,22.80
2023-03-30T14:53:03.827Z,21.90
2023-03-30T15:08:17.368Z,20.20
2023-03-30T15:23:22.391Z,24.50
2023-03-30T15:38:36.073Z,27.40
2023-03-30T15:53:44.501Z,24.10
2023-03-30T16:08:49.115Z,22.30
2023-03-30T16:23:53.714Z,20.70
2023-03-30T16:38:58.123Z,20.30
2023-03-30T16:54:02.639Z,19.60
2023-03-30T17:09:08.493Z,19.30
2023-03-30T17:24:15.118Z,19.10
2023-03-30T17:39:19.695Z,19.20
2023-03-30T17:54:24.100Z,18.60
2023-03-30T18:09:28.536Z,18.70
2023-03-30T18:24:33.173Z,18.50
2023-03-30T18:39:37.595Z,18.20
2023-03-30T18:54:41.996Z,18.00
2023-03-30T19:09:46.451Z,18.10
2023-03-30T19:24:51.086Z,17.90
2023-03-30T19:39:55.623Z,17.90
2023-03-30T19:55:00.158Z,17.80
2023-03-30T20:10:10.013Z,17.80
2023-03-30T20:25:16.618Z,17.70
2023-03-30T20:40:21.522Z,17.70
2023-03-30T20:55:26.187Z,17.40
2023-03-30T21:10:30.863Z,17.20
2023-03-30T21:25:35.404Z,17.00
2023-03-30T21:40:39.907Z,16.80
2023-03-30T21:55:48.014Z,16.80
2023-03-30T22:10:58.315Z,17.20
2023-03-30T22:26:03.136Z,17.10
2023-03-30T22:41:08.744Z,17.00
2023-03-30T22:56:13.185Z,17.10
2023-03-30T23:11:21.377Z,17.20
2023-03-30T23:26:25.976Z,17.20
2023-03-30T23:41:30.466Z,17.10
2023-03-30T23:56:35.476Z,17.20
